Time;durP1;ratioP1;P1;durP2;ratioP2;P2;SDS_P1;SDS_P2;PMS_P1;PMS_P2;Temp;Humidity;BMP_temperature;BMP_pressure;BME280_temperature;BME280_humidity;BME280_pressure;Samples;Min_cycle;Max_cycle;Signal;HPM_P1;HPM_P2
2022/08/18 00:02:12;;;;;;;2.20;2.00;;;;;;;;;;7391520;19;20130;-56
2022/08/18 00:04:37;;;;;;;4.93;2.78;;;;;;;;;;7391364;19;20052;-56
2022/08/18 00:07:05;;;;;;;9.63;2.78;;;;;;;;;;7390867;19;20473;-57
2022/08/18 00:09:30;;;;;;;3.10;2.40;;;;;;;;;;7388626;19;20051;-55
2022/08/18 00:11:56;;;;;;;3.33;2.30;;;;;;;;;;7392019;19;20106;-53
2022/08/18 00:14:21;;;;;;;2.30;2.08;;;;;;;;;;7391535;19;20352;-56
2022/08/18 00:16:48;;;;;;;5.15;2.13;;;;;;;;;;7390959;19;20022;-52
2022/08/18 00:19:14;;;;;;;2.83;2.42;;;;;;;;;;7386956;19;20022;-54
2022/08/18 00:21:39;;;;;;;5.15;2.60;;;;;;;;;;7390794;19;20026;-51
2022/08/18 00:24:05;;;;;;;2.85;2.22;;;;;;;;;;7391421;19;20014;-55
2022/08/18 00:26:30;;;;;;;3.47;2.28;;;;;;;;;;7394118;19;20010;-56
2022/08/18 00:28:55;;;;;;;2.95;1.85;;;;;;;;;;7390631;19;20043;-57
2022/08/18 00:31:21;;;;;;;3.70;2.35;;;;;;;;;;7396086;19;19998;-54
2022/08/18 00:33:46;;;;;;;4.47;2.15;;;;;;;;;;7391089;19;20493;-56
2022/08/18 00:36:11;;;;;;;4.15;2.70;;;;;;;;;;7388996;19;20030;-57
2022/08/18 00:38:38;;;;;;;2.72;2.15;;;;;;;;;;7386531;19;20002;-59
2022/08/18 00:41:04;;;;;;;2.53;2.10;;;;;;;;;;7390821;19;20480;-54
2022/08/18 00:43:42;;;;;;;3.17;2.13;;;;;;;;;;7388827;19;20103;-57
2022/08/18 00:46:13;;;;;;;4.68;2.50;;;;;;;;;;7392736;19;20376;-53
2022/08/18 00:48:38;;;;;;;2.97;2.30;;;;;;;;;;7389259;19;20014;-53
2022/08/18 00:51:14;;;;;;;2.28;1.90;;;;;;;;;;7388508;19;20701;-54
2022/08/18 00:53:45;;;;;;;3.08;2.15;;;;;;;;;;7391487;19;20082;-53
2022/08/18 00:56:21;;;;;;;3.40;2.47;;;;;;;;;;7386944;19;20019;-49
2022/08/18 00:59:11;;;;;;;4.07;2.35;;;;;;;;;;7388775;19;20015;-52
2022/08/18 01:01:38;;;;;;;2.30;1.90;;;;;;;;;;7392564;19;20036;-51
2022/08/18 01:04:19;;;;;;;4.85;2.17;;;;;;;;;;7386384;19;20018;-54
2022/08/18 01:06:51;;;;;;;3.42;2.47;;;;;;;;;;7391139;19;20069;-54
2022/08/18 01:09:17;;;;;;;4.82;2.10;;;;;;;;;;7386246;19;20014;-56
2022/08/18 01:11:43;;;;;;;2.13;2.00;;;;;;;;;;7392841;19;19999;-56
2022/08/18 01:14:10;;;;;;;4.97;2.00;;;;;;;;;;7391101;19;20018;-52
2022/08/18 01:22:17;;;;;;;2.78;2.28;;;;;;;;;;7392213;19;20021;-51
2022/08/18 01:27:35;;;;;;;4.22;2.08;;;;;;;;;;7385494;19;20581;-55
2022/08/18 01:30:10;;;;;;;3.38;2.50;;;;;;;;;;7388507;19;20009;-54
2022/08/18 01:32:37;;;;;;;4.88;2.53;;;;;;;;;;7389711;19;20007;-49
2022/08/18 01:35:03;;;;;;;3.33;2.60;;;;;;;;;;7385034;19;20074;-53
2022/08/18 01:37:29;;;;;;;4.45;2.70;;;;;;;;;;7388596;19;20029;-53
2022/08/18 01:39:54;;;;;;;4.43;2.50;;;;;;;;;;7385801;19;20579;-51
2022/08/18 01:42:20;;;;;;;2.67;2.28;;;;;;;;;;7386320;19;20006;-53
2022/08/18 01:44:47;;;;;;;2.90;2.30;;;;;;;;;;7388468;19;20002;-54
2022/08/18 01:47:15;;;;;;;5.13;2.45;;;;;;;;;;7388536;19;20314;-51
2022/08/18 01:49:41;;;;;;;3.55;2.50;;;;;;;;;;7383346;19;20026;-51
2022/08/18 01:52:08;;;;;;;6.50;2.17;;;;;;;;;;7388884;19;20015;-53
2022/08/18 01:54:33;;;;;;;2.72;2.00;;;;;;;;;;7389306;19;20086;-55
2022/08/18 01:56:59;;;;;;;3.10;2.13;;;;;;;;;;7384723;19;20049;-55
2022/08/18 01:59:24;;;;;;;2.30;2.10;;;;;;;;;;7385217;19;20002;-52
2022/08/18 02:01:54;;;;;;;3.92;2.50;;;;;;;;;;7372830;19;20010;-56
2022/08/18 02:04:24;;;;;;;4.68;3.00;;;;;;;;;;7376128;19;20010;-52
2022/08/18 02:06:49;;;;;;;3.83;2.60;;;;;;;;;;7384976;19;20530;-54
2022/08/18 02:09:15;;;;;;;4.70;3.08;;;;;;;;;;7385312;19;20028;-51
2022/08/18 02:11:40;;;;;;;3.42;2.67;;;;;;;;;;7385654;19;20057;-56
2022/08/18 02:14:05;;;;;;;4.25;2.55;;;;;;;;;;7381761;19;20014;-53
2022/08/18 02:16:32;;;;;;;4.53;3.03;;;;;;;;;;7387398;19;20023;-52
2022/08/18 02:18:57;;;;;;;2.95;2.72;;;;;;;;;;7387096;19;20002;-52
2022/08/18 02:21:23;;;;;;;3.28;2.70;;;;;;;;;;7388000;19;20014;-51
2022/08/18 02:23:48;;;;;;;4.70;3.50;;;;;;;;;;7389261;19;20022;-50
2022/08/18 02:26:15;;;;;;;5.03;2.80;;;;;;;;;;7387903;19;20013;-51
2022/08/18 02:28:41;;;;;;;7.40;2.83;;;;;;;;;;7385091;19;19998;-51
2022/08/18 02:31:13;;;;;;;5.18;3.17;;;;;;;;;;7383160;19;20329;-51
2022/08/18 02:33:39;;;;;;;6.90;3.08;;;;;;;;;;7387244;19;20455;-51
2022/08/18 02:36:05;;;;;;;4.93;3.20;;;;;;;;;;7388750;19;20563;-50
2022/08/18 02:38:31;;;;;;;3.50;2.70;;;;;;;;;;7385745;19;20018;-58
2022/08/18 02:40:59;;;;;;;3.63;2.72;;;;;;;;;;7388239;19;20050;-55
2022/08/18 02:43:25;;;;;;;4.65;2.75;;;;;;;;;;7388513;19;20058;-54
2022/08/18 02:45:51;;;;;;;3.38;2.78;;;;;;;;;;7383385;19;20452;-53
2022/08/18 02:48:21;;;;;;;4.88;2.97;;;;;;;;;;7385196;19;20492;-56
2022/08/18 02:50:46;;;;;;;4.22;2.92;;;;;;;;;;7386943;19;20026;-50
2022/08/18 02:53:22;;;;;;;3.58;2.58;;;;;;;;;;7385351;19;19998;-58
2022/08/18 02:55:47;;;;;;;4.47;2.92;;;;;;;;;;7383852;19;20042;-54
2022/08/18 02:58:13;;;;;;;3.75;3.20;;;;;;;;;;7386445;19;20014;-58
2022/08/18 03:00:38;;;;;;;3.85;2.75;;;;;;;;;;7384385;19;20020;-55
2022/08/18 03:03:04;;;;;;;3.67;3.00;;;;;;;;;;7385756;19;20017;-56
2022/08/18 03:05:30;;;;;;;3.95;3.08;;;;;;;;;;7384873;19;20013;-59
2022/08/18 03:07:55;;;;;;;4.05;3.00;;;;;;;;;;7379581;19;20322;-53
2022/08/18 03:10:21;;;;;;;4.60;2.70;;;;;;;;;;7383906;19;20034;-56
2022/08/18 03:12:46;;;;;;;3.28;2.58;;;;;;;;;;7387934;19;20499;-58
2022/08/18 03:15:11;;;;;;;5.43;2.65;;;;;;;;;;7386241;19;20082;-53
2022/08/18 03:17:37;;;;;;;5.05;3.20;;;;;;;;;;7386301;19;19998;-56
2022/08/18 03:20:04;;;;;;;5.45;2.92;;;;;;;;;;7379019;19;20472;-58
2022/08/18 03:22:30;;;;;;;4.20;3.15;;;;;;;;;;7386584;19;20002;-55
2022/08/18 03:24:57;;;;;;;5.40;2.80;;;;;;;;;;7383631;19;20007;-51
2022/08/18 03:27:22;;;;;;;3.67;2.88;;;;;;;;;;7386814;19;20072;-54
2022/08/18 03:29:49;;;;;;;3.65;2.70;;;;;;;;;;7379868;19;20010;-57
2022/08/18 03:32:14;;;;;;;6.22;2.67;;;;;;;;;;7382858;19;20027;-52
2022/08/18 03:34:41;;;;;;;3.42;2.88;;;;;;;;;;7383807;19;19991;-57
2022/08/18 03:37:07;;;;;;;3.97;2.50;;;;;;;;;;7383950;19;20378;-54
2022/08/18 03:39:33;;;;;;;4.70;2.67;;;;;;;;;;7383965;19;20034;-55
2022/08/18 03:41:58;;;;;;;3.97;2.60;;;;;;;;;;7384410;19;20112;-54
2022/08/18 03:44:24;;;;;;;3.55;2.58;;;;;;;;;;7385465;19;20044;-58
2022/08/18 03:46:50;;;;;;;6.22;2.83;;;;;;;;;;7387174;19;20014;-54
2022/08/18 03:49:16;;;;;;;2.97;2.70;;;;;;;;;;7383337;19;20003;-50
2022/08/18 03:51:45;;;;;;;2.80;2.35;;;;;;;;;;7382353;19;20489;-57
2022/08/18 03:54:12;;;;;;;5.22;2.88;;;;;;;;;;7387019;19;20015;-54
2022/08/18 03:56:40;;;;;;;3.78;2.85;;;;;;;;;;7381712;19;20096;-59
2022/08/18 03:59:32;;;;;;;3.22;2.70;;;;;;;;;;7383191;19;20028;-57
2022/08/18 04:01:57;;;;;;;2.92;2.42;;;;;;;;;;7383788;19;20023;-59
2022/08/18 04:04:26;;;;;;;3.25;2.25;;;;;;;;;;7386200;19;20003;-55
2022/08/18 04:06:57;;;;;;;3.08;2.78;;;;;;;;;;7382590;19;20035;-55
2022/08/18 04:09:24;;;;;;;5.45;2.92;;;;;;;;;;7379835;19;20035;-60
2022/08/18 04:11:49;;;;;;;4.03;2.90;;;;;;;;;;7382207;19;20002;-59
2022/08/18 04:14:18;;;;;;;4.32;2.78;;;;;;;;;;7385287;19;20360;-57
2022/08/18 04:16:44;;;;;;;4.25;2.20;;;;;;;;;;7382687;19;20014;-55
2022/08/18 04:19:12;;;;;;;4.13;2.83;;;;;;;;;;7371828;19;20010;-56
2022/08/18 04:21:40;;;;;;;4.03;2.97;;;;;;;;;;7384371;19;20032;-54
2022/08/18 04:24:07;;;;;;;3.92;2.75;;;;;;;;;;7383488;19;20484;-57
2022/08/18 04:26:37;;;;;;;3.65;2.58;;;;;;;;;;7385297;19;20023;-55
2022/08/18 04:29:05;;;;;;;3.20;2.72;;;;;;;;;;7384539;19;20014;-60
2022/08/18 04:31:30;;;;;;;3.40;2.70;;;;;;;;;;7380801;19;20022;-52
2022/08/18 04:33:57;;;;;;;2.63;2.20;;;;;;;;;;7374772;19;20370;-60
2022/08/18 04:36:23;;;;;;;2.90;2.60;;;;;;;;;;7380851;19;20404;-56
2022/08/18 04:38:49;;;;;;;3.38;2.78;;;;;;;;;;7388530;19;20081;-58
2022/08/18 04:41:15;;;;;;;4.35;2.85;;;;;;;;;;7393570;19;20002;-54
2022/08/18 04:43:41;;;;;;;3.13;2.30;;;;;;;;;;7388384;19;20011;-61
2022/08/18 04:46:07;;;;;;;3.97;2.90;;;;;;;;;;7388882;19;20006;-53
2022/08/18 04:48:34;;;;;;;3.00;2.30;;;;;;;;;;7388617;19;20018;-56
2022/08/18 04:51:19;;;;;;;3.25;2.53;;;;;;;;;;7393362;19;20009;-56
2022/08/18 04:53:45;;;;;;;2.90;2.30;;;;;;;;;;7388453;19;20374;-56
2022/08/18 04:56:20;;;;;;;4.50;2.78;;;;;;;;;;7390444;19;20432;-54
2022/08/18 04:58:50;;;;;;;3.45;2.90;;;;;;;;;;7382311;19;20010;-54
2022/08/18 05:01:16;;;;;;;4.85;3.15;;;;;;;;;;7385450;19;20408;-60
2022/08/18 05:03:42;;;;;;;4.80;2.60;;;;;;;;;;7388203;19;20002;-52
2022/08/18 05:06:08;;;;;;;6.93;3.15;;;;;;;;;;7386600;19;20695;-55
2022/08/18 05:08:34;;;;;;;3.70;2.78;;;;;;;;;;7385400;19;20034;-57
2022/08/18 05:10:59;;;;;;;3.10;2.67;;;;;;;;;;7381641;19;20098;-57
2022/08/18 05:13:25;;;;;;;3.83;2.63;;;;;;;;;;7389197;19;20006;-57
2022/08/18 05:15:55;;;;;;;4.18;2.70;;;;;;;;;;7381067;19;20026;-59
2022/08/18 05:18:23;;;;;;;4.13;3.40;;;;;;;;;;7381073;19;20024;-53
2022/08/18 05:20:52;;;;;;;3.15;2.85;;;;;;;;;;7383550;19;22473;-53
2022/08/18 05:23:19;;;;;;;5.30;3.00;;;;;;;;;;7386570;19;20002;-55
2022/08/18 05:25:45;;;;;;;4.20;3.47;;;;;;;;;;7387102;19;20352;-60
2022/08/18 05:28:12;;;;;;;4.05;3.33;;;;;;;;;;7384572;19;20134;-57
2022/08/18 05:30:39;;;;;;;4.97;3.00;;;;;;;;;;7382817;19;20043;-56
2022/08/18 05:33:05;;;;;;;4.85;3.30;;;;;;;;;;7389035;19;20105;-58
2022/08/18 05:35:40;;;;;;;3.80;3.03;;;;;;;;;;7384514;19;20019;-58
2022/08/18 05:38:38;;;;;;;5.50;3.03;;;;;;;;;;7387903;19;20049;-59
2022/08/18 05:41:09;;;;;;;4.63;3.08;;;;;;;;;;7386523;19;20018;-59
2022/08/18 05:43:36;;;;;;;3.75;3.28;;;;;;;;;;7385039;19;20010;-57
2022/08/18 05:46:04;;;;;;;6.53;4.00;;;;;;;;;;7387816;19;20526;-58
2022/08/18 05:48:31;;;;;;;5.13;3.60;;;;;;;;;;7383705;19;20201;-58
2022/08/18 05:50:58;;;;;;;4.28;3.63;;;;;;;;;;7389381;19;20014;-58
2022/08/18 05:56:45;;;;;;;4.45;3.67;;;;;;;;;;7384253;19;20383;-59
2022/08/18 05:58:58;;;;;;;4.32;3.53;;;;;;;;;;7380371;19;20014;-59
2022/08/18 06:01:40;;;;;;;4.28;3.60;;;;;;;;;;7382369;19;20018;-59
2022/08/18 06:04:22;;;;;;;5.22;3.92;;;;;;;;;;7382141;19;20003;-60
2022/08/18 06:06:49;;;;;;;5.38;3.25;;;;;;;;;;7386732;19;20015;-59
2022/08/18 06:09:27;;;;;;;4.18;3.38;;;;;;;;;;7373266;19;20401;-60
2022/08/18 06:12:05;;;;;;;3.58;3.10;;;;;;;;;;7387359;19;20389;-59
2022/08/18 06:14:30;;;;;;;3.95;3.33;;;;;;;;;;7383294;19;20003;-60
2022/08/18 06:17:16;;;;;;;7.10;3.85;;;;;;;;;;7390381;19;20362;-59
2022/08/18 06:19:50;;;;;;;11.15;4.07;;;;;;;;;;7387233;19;20010;-57
2022/08/18 06:22:37;;;;;;;5.20;3.30;;;;;;;;;;7386576;19;20035;-60
2022/08/18 06:25:19;;;;;;;4.78;3.50;;;;;;;;;;7387412;19;20074;-57
2022/08/18 06:28:03;;;;;;;4.10;3.55;;;;;;;;;;7372605;19;20006;-58
2022/08/18 06:30:41;;;;;;;4.55;3.72;;;;;;;;;;7379887;19;20410;-59
2022/08/18 06:33:28;;;;;;;5.82;4.35;;;;;;;;;;7386309;19;20010;-59
2022/08/18 06:36:02;;;;;;;5.63;4.22;;;;;;;;;;7384399;19;20006;-57
2022/08/18 06:38:39;;;;;;;5.78;4.68;;;;;;;;;;7380564;19;20815;-59
2022/08/18 06:41:18;;;;;;;4.78;3.70;;;;;;;;;;7382245;19;20507;-57
2022/08/18 06:44:00;;;;;;;8.02;3.50;;;;;;;;;;7383206;19;20010;-57
2022/08/18 06:46:40;;;;;;;5.40;4.28;;;;;;;;;;7385911;19;20018;-56
2022/08/18 06:49:09;;;;;;;4.57;3.80;;;;;;;;;;7385373;19;20014;-58
2022/08/18 06:51:36;;;;;;;4.47;4.00;;;;;;;;;;7382691;19;20038;-58
2022/08/18 06:54:18;;;;;;;4.55;3.85;;;;;;;;;;7382920;19;20021;-58
2022/08/18 06:56:53;;;;;;;6.38;3.97;;;;;;;;;;7383107;19;20011;-60
2022/08/18 06:59:30;;;;;;;7.97;3.67;;;;;;;;;;7386306;19;20006;-59
2022/08/18 07:02:22;;;;;;;5.53;4.20;;;;;;;;;;7386467;19;20018;-58
2022/08/18 07:05:18;;;;;;;7.90;4.88;;;;;;;;;;7387270;19;20011;-57
2022/08/18 07:07:44;;;;;;;4.82;4.32;;;;;;;;;;7382544;19;20640;-59
2022/08/18 07:10:12;;;;;;;9.90;5.13;;;;;;;;;;7382713;19;20006;-61
2022/08/18 07:12:37;;;;;;;6.72;4.90;;;;;;;;;;7383889;19;20379;-59
2022/08/18 07:15:06;;;;;;;4.82;4.32;;;;;;;;;;7387789;19;20023;-61
2022/08/18 07:17:36;;;;;;;8.40;4.97;;;;;;;;;;7387228;19;20112;-59
2022/08/18 07:20:19;;;;;;;5.20;4.60;;;;;;;;;;7381692;19;20014;-58
2022/08/18 07:23:22;;;;;;;8.43;4.80;;;;;;;;;;7387487;19;20440;-61
2022/08/18 07:25:51;;;;;;;8.30;4.68;;;;;;;;;;7380870;19;20022;-59
2022/08/18 07:28:31;;;;;;;5.40;4.78;;;;;;;;;;7377335;19;20456;-57
2022/08/18 07:31:33;;;;;;;6.07;5.22;;;;;;;;;;7379428;19;20364;-56
2022/08/18 07:34:11;;;;;;;5.53;4.50;;;;;;;;;;7377238;19;20014;-62
2022/08/18 07:37:11;;;;;;;4.88;4.30;;;;;;;;;;7388100;19;20002;-59
2022/08/18 07:39:44;;;;;;;5.47;4.50;;;;;;;;;;7379722;19;20338;-62
2022/08/18 07:42:16;;;;;;;5.60;4.20;;;;;;;;;;7382800;19;20011;-62
2022/08/18 07:44:42;;;;;;;7.22;4.63;;;;;;;;;;7384924;19;20081;-61
2022/08/18 07:47:21;;;;;;;4.90;4.28;;;;;;;;;;7382453;19;20018;-62
2022/08/18 07:49:47;;;;;;;5.15;4.38;;;;;;;;;;7378340;19;20606;-62
2022/08/18 07:52:24;;;;;;;5.90;4.25;;;;;;;;;;7384925;19;20022;-61
2022/08/18 07:55:03;;;;;;;5.20;3.95;;;;;;;;;;7381761;19;20241;-65
2022/08/18 07:58:06;;;;;;;3.85;3.40;;;;;;;;;;7384179;19;20015;-60
2022/08/18 08:00:53;;;;;;;4.28;3.13;;;;;;;;;;7383004;19;20204;-60
2022/08/18 08:03:37;;;;;;;4.47;3.92;;;;;;;;;;7385050;19;20010;-61
2022/08/18 08:06:06;;;;;;;5.40;3.88;;;;;;;;;;7376753;19;20017;-66
2022/08/18 08:08:42;;;;;;;7.45;4.05;;;;;;;;;;7381449;19;20022;-60
2022/08/18 08:11:37;;;;;;;6.63;4.03;;;;;;;;;;7385415;19;19999;-59
2022/08/18 08:14:18;;;;;;;4.95;3.75;;;;;;;;;;7395050;19;20002;-61
2022/08/18 08:16:46;;;;;;;4.13;3.08;;;;;;;;;;7385419;19;20388;-59
2022/08/18 08:19:40;;;;;;;4.45;3.40;;;;;;;;;;7382464;19;20033;-63
2022/08/18 08:22:14;;;;;;;4.10;3.35;;;;;;;;;;7386139;19;20017;-68
2022/08/18 08:24:56;;;;;;;6.82;3.95;;;;;;;;;;7385694;19;20023;-62
2022/08/18 08:27:36;;;;;;;4.55;3.38;;;;;;;;;;7381376;19;20017;-59
2022/08/18 08:30:07;;;;;;;5.15;3.83;;;;;;;;;;7387674;19;20002;-60
2022/08/18 08:32:35;;;;;;;10.27;3.90;;;;;;;;;;7386171;19;20075;-62
2022/08/18 08:35:12;;;;;;;5.07;4.25;;;;;;;;;;7382494;19;20078;-58
2022/08/18 08:37:58;;;;;;;4.45;4.05;;;;;;;;;;7386555;19;20014;-59
2022/08/18 08:40:42;;;;;;;4.50;3.63;;;;;;;;;;7385027;19;20017;-60
2022/08/18 08:43:11;;;;;;;4.40;3.70;;;;;;;;;;7389938;19;20046;-59
2022/08/18 08:45:43;;;;;;;5.60;3.42;;;;;;;;;;7387195;19;20023;-60
2022/08/18 08:48:19;;;;;;;3.63;3.33;;;;;;;;;;7375983;19;20011;-60
2022/08/18 08:50:51;;;;;;;5.63;3.85;;;;;;;;;;7380875;19;20202;-66
2022/08/18 08:53:32;;;;;;;5.57;3.80;;;;;;;;;;7385976;19;20199;-62
2022/08/18 08:56:08;;;;;;;4.47;4.05;;;;;;;;;;7388794;19;20035;-60
2022/08/18 08:58:41;;;;;;;5.25;4.18;;;;;;;;;;7382792;19;20467;-63
2022/08/18 09:01:13;;;;;;;5.72;3.70;;;;;;;;;;7384014;19;20022;-61
2022/08/18 09:03:56;;;;;;;5.65;3.92;;;;;;;;;;7387429;19;20003;-62
2022/08/18 09:06:47;;;;;;;4.22;3.67;;;;;;;;;;7390267;19;20533;-63
2022/08/18 09:09:51;;;;;;;4.13;3.30;;;;;;;;;;7381063;19;20010;-64
2022/08/18 09:12:37;;;;;;;3.75;3.28;;;;;;;;;;7383685;19;20460;-60
2022/08/18 09:15:27;;;;;;;4.07;3.45;;;;;;;;;;7376304;19;20006;-61
2022/08/18 09:18:11;;;;;;;4.32;3.38;;;;;;;;;;7385447;19;20053;-62
2022/08/18 09:20:57;;;;;;;5.13;3.88;;;;;;;;;;7383428;19;20058;-59
2022/08/18 09:23:29;;;;;;;5.80;4.45;;;;;;;;;;7385312;19;20374;-66
2022/08/18 09:25:59;;;;;;;6.00;4.22;;;;;;;;;;7386865;19;20011;-59
2022/08/18 09:28:27;;;;;;;6.13;4.32;;;;;;;;;;7375799;19;20502;-58
2022/08/18 09:31:05;;;;;;;4.55;4.15;;;;;;;;;;7380413;19;20045;-61
2022/08/18 09:33:39;;;;;;;4.22;3.75;;;;;;;;;;7382866;19;20006;-61
2022/08/18 09:36:06;;;;;;;4.67;3.90;;;;;;;;;;7388106;19;20085;-60
2022/08/18 09:41:30;;;;;;;3.78;3.42;;;;;;;;;;7380092;19;20135;-62
2022/08/18 09:44:09;;;;;;;4.45;3.47;;;;;;;;;;7381451;19;20010;-66
2022/08/18 09:46:46;;;;;;;5.32;4.18;;;;;;;;;;7387281;19;20095;-62
2022/08/18 09:49:26;;;;;;;5.07;4.43;;;;;;;;;;7380032;19;20381;-60
2022/08/18 09:52:00;;;;;;;4.63;4.22;;;;;;;;;;7386752;19;20480;-60
2022/08/18 09:54:32;;;;;;;5.30;4.07;;;;;;;;;;7386423;19;20360;-62
2022/08/18 09:57:03;;;;;;;7.13;4.45;;;;;;;;;;7387196;19;20475;-59
2022/08/18 09:59:31;;;;;;;5.03;4.28;;;;;;;;;;7386273;19;20135;-59
2022/08/18 10:01:57;;;;;;;5.75;4.15;;;;;;;;;;7377679;19;20439;-60
2022/08/18 10:04:35;;;;;;;4.07;3.58;;;;;;;;;;7378681;19;20031;-61
2022/08/18 10:07:32;;;;;;;5.40;4.20;;;;;;;;;;7384727;19;20094;-62
2022/08/18 10:10:12;;;;;;;4.45;4.05;;;;;;;;;;7383803;19;20014;-62
2022/08/18 10:12:57;;;;;;;5.05;4.10;;;;;;;;;;7371655;19;20030;-63
2022/08/18 10:15:39;;;;;;;5.03;4.53;;;;;;;;;;7370034;19;20014;-63
2022/08/18 10:18:13;;;;;;;5.53;4.38;;;;;;;;;;7381017;19;20014;-61
2022/08/18 10:20:53;;;;;;;6.07;3.78;;;;;;;;;;7378414;19;20365;-60
2022/08/18 10:23:40;;;;;;;4.13;3.58;;;;;;;;;;7370961;19;20006;-62
2022/08/18 10:26:29;;;;;;;4.07;3.67;;;;;;;;;;7375498;19;20433;-61
2022/08/18 10:29:02;;;;;;;5.85;3.22;;;;;;;;;;7381231;19;20795;-61
2022/08/18 10:31:29;;;;;;;5.38;3.58;;;;;;;;;;7382993;19;20185;-61
2022/08/18 10:34:10;;;;;;;3.45;3.10;;;;;;;;;;7381554;19;20021;-60
2022/08/18 10:36:49;;;;;;;6.25;4.28;;;;;;;;;;7375910;19;20030;-59
2022/08/18 10:39:26;;;;;;;6.00;3.50;;;;;;;;;;7363351;19;20027;-62
2022/08/18 10:42:13;;;;;;;4.45;4.00;;;;;;;;;;7379282;19;20007;-61
2022/08/18 10:44:44;;;;;;;5.15;3.33;;;;;;;;;;7384368;19;20049;-61
2022/08/18 10:47:25;;;;;;;4.40;3.33;;;;;;;;;;7389173;19;20201;-61
2022/08/18 10:49:51;;;;;;;4.35;3.50;;;;;;;;;;7381739;19;20079;-61
2022/08/18 10:52:38;;;;;;;3.88;3.40;;;;;;;;;;7385172;19;20031;-58
2022/08/18 10:55:12;;;;;;;4.05;3.10;;;;;;;;;;7371928;19;20115;-60
2022/08/18 10:57:47;;;;;;;5.10;3.03;;;;;;;;;;7378569;19;20061;-60
2022/08/18 11:00:18;;;;;;;3.03;2.50;;;;;;;;;;7378456;19;20015;-60
2022/08/18 11:02:56;;;;;;;3.10;2.80;;;;;;;;;;7383170;19;20371;-62
2022/08/18 11:05:24;;;;;;;3.65;2.67;;;;;;;;;;7366603;19;20093;-61
2022/08/18 11:07:57;;;;;;;3.30;2.47;;;;;;;;;;7378287;19;20021;-61
2022/08/18 11:10:42;;;;;;;3.90;3.50;;;;;;;;;;7376895;19;20014;-57
2022/08/18 11:13:20;;;;;;;4.77;3.00;;;;;;;;;;7382578;19;20070;-59
2022/08/18 11:16:00;;;;;;;4.80;3.13;;;;;;;;;;7372248;19;20029;-59
2022/08/18 11:18:40;;;;;;;4.28;2.63;;;;;;;;;;7380305;19;20085;-58
2022/08/18 11:21:31;;;;;;;8.43;3.20;;;;;;;;;;7383436;19;20451;-60
2022/08/18 11:24:12;;;;;;;3.20;2.70;;;;;;;;;;7381402;19;20018;-61
2022/08/18 11:26:45;;;;;;;3.60;3.00;;;;;;;;;;7380731;19;20007;-61
2022/08/18 11:29:21;;;;;;;4.65;2.40;;;;;;;;;;7379258;19;20014;-61
2022/08/18 11:31:52;;;;;;;2.85;2.58;;;;;;;;;;7374404;19;20466;-61
2022/08/18 11:34:26;;;;;;;2.97;2.35;;;;;;;;;;7365875;19;20019;-59
2022/08/18 11:37:04;;;;;;;3.65;2.83;;;;;;;;;;7370732;19;20070;-61
2022/08/18 11:39:30;;;;;;;3.08;2.75;;;;;;;;;;7366301;19;20350;-62
2022/08/18 11:41:56;;;;;;;3.22;2.53;;;;;;;;;;7382046;19;20031;-61
2022/08/18 11:44:24;;;;;;;3.90;2.50;;;;;;;;;;7379196;19;20021;-61
2022/08/18 11:46:56;;;;;;;6.65;2.60;;;;;;;;;;7369969;19;20007;-61
2022/08/18 11:49:32;;;;;;;4.72;2.85;;;;;;;;;;7374529;19;20010;-61
2022/08/18 11:52:18;;;;;;;4.30;2.35;;;;;;;;;;7372176;19;20073;-59
2022/08/18 11:54:48;;;;;;;3.67;2.30;;;;;;;;;;7376233;19;20508;-63
2022/08/18 11:57:40;;;;;;;2.83;2.22;;;;;;;;;;7381752;19;20025;-59
2022/08/18 12:00:35;;;;;;;3.17;2.50;;;;;;;;;;7372111;19;20014;-60
2022/08/18 12:03:07;;;;;;;2.50;2.30;;;;;;;;;;7373520;19;20023;-61
2022/08/18 12:05:52;;;;;;;7.40;2.80;;;;;;;;;;7375507;19;20259;-59
2022/08/18 12:08:34;;;;;;;3.35;3.00;;;;;;;;;;7382457;19;20426;-61
2022/08/18 12:11:14;;;;;;;3.30;2.88;;;;;;;;;;7382006;19;20464;-61
2022/08/18 12:13:43;;;;;;;3.53;2.70;;;;;;;;;;7380192;19;20049;-59
2022/08/18 12:16:16;;;;;;;2.97;2.65;;;;;;;;;;7380249;19;20006;-60
2022/08/18 12:18:42;;;;;;;5.65;2.88;;;;;;;;;;7379649;19;20014;-61
2022/08/18 12:21:09;;;;;;;3.83;2.58;;;;;;;;;;7381532;19;20039;-61
2022/08/18 12:23:35;;;;;;;4.50;2.50;;;;;;;;;;7382613;19;20014;-61
2022/08/18 12:26:02;;;;;;;2.85;2.40;;;;;;;;;;7381775;19;20007;-61
2022/08/18 12:28:27;;;;;;;3.97;2.00;;;;;;;;;;7378420;19;20205;-60
2022/08/18 12:30:53;;;;;;;4.45;2.80;;;;;;;;;;7383840;19;20088;-60
2022/08/18 12:33:18;;;;;;;3.35;2.95;;;;;;;;;;7382686;19;20481;-61
2022/08/18 12:35:44;;;;;;;2.63;2.35;;;;;;;;;;7379879;19;20518;-60
2022/08/18 12:38:11;;;;;;;3.88;2.47;;;;;;;;;;7380932;19;20097;-63
2022/08/18 12:40:37;;;;;;;3.35;2.45;;;;;;;;;;7368849;19;20014;-64
2022/08/18 12:43:02;;;;;;;3.28;2.28;;;;;;;;;;7378135;19;20006;-64
2022/08/18 12:45:29;;;;;;;2.55;2.35;;;;;;;;;;7233677;19;2750954;-64
2022/08/18 12:47:55;;;;;;;3.33;2.45;;;;;;;;;;7373006;19;20365;-64
2022/08/18 12:50:20;;;;;;;3.00;2.47;;;;;;;;;;7378857;19;20027;-64
2022/08/18 12:52:46;;;;;;;4.30;2.28;;;;;;;;;;7378043;19;20018;-64
2022/08/18 12:55:11;;;;;;;2.75;2.45;;;;;;;;;;7375474;19;20037;-64
2022/08/18 12:57:36;;;;;;;2.95;2.53;;;;;;;;;;7380661;19;20037;-63
2022/08/18 13:00:03;;;;;;;2.90;2.50;;;;;;;;;;7391139;19;19998;-62
2022/08/18 13:02:29;;;;;;;3.63;2.35;;;;;;;;;;7389316;19;20570;-64
2022/08/18 13:04:54;;;;;;;2.30;2.10;;;;;;;;;;7391541;19;20746;-64
2022/08/18 13:07:19;;;;;;;3.28;2.22;;;;;;;;;;7391699;19;19999;-65
2022/08/18 13:09:45;;;;;;;3.00;2.50;;;;;;;;;;7386004;19;19999;-64
2022/08/18 13:12:11;;;;;;;3.70;2.20;;;;;;;;;;7391697;19;20001;-64
2022/08/18 13:14:37;;;;;;;3.40;2.33;;;;;;;;;;7391437;19;20455;-64
2022/08/18 13:17:02;;;;;;;2.53;2.08;;;;;;;;;;7393129;19;20003;-64
2022/08/18 13:19:28;;;;;;;2.60;2.15;;;;;;;;;;7385943;19;20017;-63
2022/08/18 13:21:53;;;;;;;3.42;2.40;;;;;;;;;;7388572;19;20025;-63
2022/08/18 13:24:19;;;;;;;3.53;2.30;;;;;;;;;;7389182;19;20007;-62
2022/08/18 13:26:46;;;;;;;5.20;2.47;;;;;;;;;;7389123;19;20035;-64
2022/08/18 13:29:12;;;;;;;3.53;2.42;;;;;;;;;;7388523;19;20007;-65
2022/08/18 13:31:38;;;;;;;2.50;2.10;;;;;;;;;;7391066;19;20009;-64
2022/08/18 13:34:06;;;;;;;3.28;2.63;;;;;;;;;;7393302;19;20082;-65
2022/08/18 13:36:43;;;;;;;3.10;2.05;;;;;;;;;;7390887;19;20003;-65
2022/08/18 13:39:15;;;;;;;4.38;2.28;;;;;;;;;;7385580;19;20010;-65
2022/08/18 13:41:42;;;;;;;5.72;2.13;;;;;;;;;;7388319;19;20010;-65
2022/08/18 13:44:09;;;;;;;4.10;2.42;;;;;;;;;;7390216;19;20058;-64
2022/08/18 13:46:44;;;;;;;2.38;2.17;;;;;;;;;;7391425;19;19998;-65
2022/08/18 13:49:11;;;;;;;3.28;2.15;;;;;;;;;;7383325;19;20017;-62
2022/08/18 13:51:37;;;;;;;3.40;2.20;;;;;;;;;;7386796;19;20392;-62
2022/08/18 13:54:02;;;;;;;2.60;2.40;;;;;;;;;;7388992;19;20575;-62
2022/08/18 13:56:28;;;;;;;3.40;2.03;;;;;;;;;;7390826;19;20005;-63
2022/08/18 13:58:53;;;;;;;2.88;2.58;;;;;;;;;;7384537;19;20003;-65
2022/08/18 14:01:18;;;;;;;3.75;2.40;;;;;;;;;;7382114;19;20016;-63
2022/08/18 14:03:44;;;;;;;3.15;2.15;;;;;;;;;;7385236;19;20007;-62
2022/08/18 14:06:10;;;;;;;2.88;2.20;;;;;;;;;;7389320;19;19999;-62
2022/08/18 14:08:35;;;;;;;5.10;2.15;;;;;;;;;;7386924;19;20556;-63
2022/08/18 14:11:02;;;;;;;3.13;2.38;;;;;;;;;;7390333;19;20003;-62
2022/08/18 14:13:28;;;;;;;2.67;2.47;;;;;;;;;;7387090;19;19999;-63
2022/08/18 14:15:56;;;;;;;2.90;2.30;;;;;;;;;;7386753;19;20006;-63
2022/08/18 14:18:25;;;;;;;3.67;2.58;;;;;;;;;;7387612;19;20014;-63
2022/08/18 14:26:49;;;;;;;2.45;2.25;;;;;;;;;;7381632;19;20121;-63
2022/08/18 14:29:15;;;;;;;3.83;2.40;;;;;;;;;;7384972;19;20023;-63
2022/08/18 14:31:41;;;;;;;4.45;2.30;;;;;;;;;;7388934;19;20003;-63
2022/08/18 14:34:07;;;;;;;5.28;2.60;;;;;;;;;;7385683;19;20015;-63
2022/08/18 14:36:33;;;;;;;3.33;2.15;;;;;;;;;;7385875;19;20002;-63
2022/08/18 14:38:59;;;;;;;2.70;2.05;;;;;;;;;;7385724;19;20446;-63
2022/08/18 14:41:25;;;;;;;3.40;2.20;;;;;;;;;;7385805;19;20308;-63
2022/08/18 14:43:55;;;;;;;2.60;2.05;;;;;;;;;;7387705;19;20021;-63
2022/08/18 14:46:20;;;;;;;5.93;2.60;;;;;;;;;;7388611;19;20023;-63
2022/08/18 14:48:46;;;;;;;3.60;2.30;;;;;;;;;;7383671;19;20002;-63
2022/08/18 14:51:11;;;;;;;3.42;2.15;;;;;;;;;;7385294;19;20363;-63
2022/08/18 14:53:37;;;;;;;5.25;2.58;;;;;;;;;;7384856;19;20035;-64
2022/08/18 14:56:04;;;;;;;3.05;2.45;;;;;;;;;;7388422;19;20526;-63
2022/08/18 14:58:31;;;;;;;4.40;2.10;;;;;;;;;;7385550;19;20429;-63
2022/08/18 15:01:00;;;;;;;2.88;2.10;;;;;;;;;;7384879;19;20472;-63
2022/08/18 15:03:28;;;;;;;2.95;2.33;;;;;;;;;;7367704;19;20007;-63
2022/08/18 15:05:54;;;;;;;2.75;2.53;;;;;;;;;;7383756;19;20034;-63
2022/08/18 15:08:20;;;;;;;3.08;2.20;;;;;;;;;;7383388;19;20065;-63
2022/08/18 15:10:46;;;;;;;2.60;2.28;;;;;;;;;;7385836;19;20014;-63
2022/08/18 15:13:12;;;;;;;5.15;3.05;;;;;;;;;;7383196;19;20730;-63
2022/08/18 15:15:37;;;;;;;4.75;2.08;;;;;;;;;;7382166;19;20001;-63
2022/08/18 15:18:03;;;;;;;2.20;1.92;;;;;;;;;;7381066;19;20365;-65
2022/08/18 15:20:28;;;;;;;2.67;2.10;;;;;;;;;;7382037;19;20006;-65
2022/08/18 15:25:40;;;;;;;2.72;2.08;;;;;;;;;;7381086;19;20017;-65
2022/08/18 15:28:07;;;;;;;3.40;2.30;;;;;;;;;;7382210;19;20019;-65
2022/08/18 15:30:32;;;;;;;4.03;2.72;;;;;;;;;;7387024;19;20110;-64
2022/08/18 15:32:58;;;;;;;3.00;2.33;;;;;;;;;;7382468;19;20044;-64